Time;durP1;ratioP1;P1;durP2;ratioP2;P2;SDS_P1;SDS_P2;PMS_P1;PMS_P2;Temp;Humidity;BMP_temperature;BMP_pressure;BME280_temperature;BME280_humidity;BME280_pressure;Samples;Min_cycle;Max_cycle;Signal;HPM_P1;HPM_P2
2022/08/17 00:01:06;;;;;;;17.48;16.67;;;;;;;-141.02;100.00;82195.66;5112373;28;20189;-78
2022/08/17 00:03:37;;;;;;;17.55;16.75;;;;;;;-141.02;100.00;82203.44;5112279;28;20218;-79
2022/08/17 00:06:10;;;;;;;17.40;16.60;;;;;;;-141.02;100.00;82195.66;5112388;28;20185;-79
2022/08/17 00:08:40;;;;;;;17.48;16.67;;;;;;;-141.02;100.00;82213.13;5112312;28;20246;-78
2022/08/17 00:11:11;;;;;;;17.60;16.80;;;;;;;-141.02;100.00;82220.91;5112304;28;20200;-77
2022/08/17 00:13:43;;;;;;;17.70;16.90;;;;;;;-141.02;100.00;82187.88;5112173;28;20626;-78
2022/08/17 00:16:15;;;;;;;17.80;16.90;;;;;;;-141.02;100.00;82207.31;5112210;28;20693;-77
2022/08/17 00:18:43;;;;;;;17.88;16.98;;;;;;;-141.02;100.00;82187.88;5112215;28;20361;-78
2022/08/17 00:21:11;;;;;;;18.00;17.10;;;;;;;-141.02;100.00;82184.00;5112093;28;20200;-78
2022/08/17 00:23:40;;;;;;;17.95;17.08;;;;;;;-141.02;100.00;82176.25;5112448;28;20201;-81
2022/08/17 00:26:08;;;;;;;18.02;17.13;;;;;;;-141.02;100.00;82172.34;5112090;28;20677;-78
2022/08/17 00:28:36;;;;;;;18.05;17.15;;;;;;;-141.02;100.00;82164.59;5112206;28;20189;-78
2022/08/17 00:31:07;;;;;;;18.55;17.65;;;;;;;-141.02;100.00;82156.81;5112028;28;20612;-78
2022/08/17 00:33:35;;;;;;;18.00;17.10;;;;;;;-141.02;100.00;82125.75;5112064;28;20252;-78
2022/08/17 00:36:04;;;;;;;18.60;17.70;;;;;;;-141.02;100.00;82106.31;5112047;28;20189;-77
2022/08/17 00:38:32;;;;;;;18.95;17.95;;;;;;;-141.02;100.00;82145.16;5112002;28;20193;-78
2022/08/17 00:41:04;;;;;;;18.60;17.70;;;;;;;-141.02;100.00;82135.47;5112315;28;20392;-78
2022/08/17 00:43:34;;;;;;;17.58;16.67;;;;;;;-141.02;100.00;82162.66;5112728;28;20231;-79
2022/08/17 00:46:07;;;;;;;18.13;17.23;;;;;;;-141.02;100.00;82172.34;5115943;28;20732;-78
2022/08/17 00:48:36;;;;;;;18.73;17.83;;;;;;;-141.02;100.00;82174.28;5115876;28;20185;-78
2022/08/17 00:51:09;;;;;;;18.42;17.52;;;;;;;-141.02;100.00;82176.25;5115831;28;20246;-79
2022/08/17 00:53:42;;;;;;;18.40;17.50;;;;;;;-141.02;100.00;82191.78;5115742;28;20217;-79
2022/08/17 00:56:15;;;;;;;18.00;17.10;;;;;;;-141.02;100.00;82193.72;5115783;28;20246;-78
2022/08/17 00:58:42;;;;;;;17.92;17.13;;;;;;;-141.02;100.00;82226.72;5115577;28;20655;-80
2022/08/17 01:01:12;;;;;;;17.77;16.98;;;;;;;-141.02;100.00;82222.84;5115962;28;20266;-79
2022/08/17 01:03:42;;;;;;;17.95;17.13;;;;;;;-141.02;100.00;82184.00;5115486;28;20242;-79
2022/08/17 01:06:11;;;;;;;17.65;16.85;;;;;;;-141.02;100.00;82185.94;5115845;28;20204;-78
2022/08/17 01:08:39;;;;;;;17.75;16.95;;;;;;;-141.02;100.00;82199.53;5115424;28;20197;-80
2022/08/17 01:11:08;;;;;;;17.83;16.98;;;;;;;-141.02;100.00;82201.50;5115437;28;20200;-80
2022/08/17 01:13:38;;;;;;;18.25;17.35;;;;;;;-141.02;100.00;82218.97;5115633;28;20225;-80
2022/08/17 01:16:10;;;;;;;18.67;17.77;;;;;;;-141.02;100.00;82187.88;5115361;28;20224;-80
2022/08/17 01:18:41;;;;;;;18.23;17.33;;;;;;;-141.02;100.00;82222.84;5115344;28;20317;-79
2022/08/17 01:21:14;;;;;;;17.95;17.15;;;;;;;-141.02;100.00;82203.44;5115228;28;20197;-79
2022/08/17 01:23:43;;;;;;;17.55;16.75;;;;;;;-141.02;100.00;82220.91;5115266;28;20193;-81
2022/08/17 01:26:10;;;;;;;17.95;17.15;;;;;;;-141.02;100.00;82238.38;5115107;28;20189;-80
2022/08/17 01:28:39;;;;;;;17.90;17.10;;;;;;;-141.02;100.00;82261.69;5115084;28;20555;-81
2022/08/17 01:31:08;;;;;;;16.70;16.00;;;;;;;-141.02;100.00;82253.91;5115061;28;20193;-80
2022/08/17 01:33:36;;;;;;;17.83;17.02;;;;;;;-141.02;100.00;82226.72;5114908;28;20671;-79
2022/08/17 01:36:05;;;;;;;17.52;16.73;;;;;;;-141.02;100.00;82228.69;5114935;28;20678;-81
2022/08/17 01:38:32;;;;;;;18.45;17.55;;;;;;;-141.02;100.00;82211.19;5114870;28;20662;-80
2022/08/17 01:41:05;;;;;;;18.88;17.98;;;;;;;-141.02;100.00;82195.66;5115193;28;20220;-80
2022/08/17 01:43:39;;;;;;;17.85;17.05;;;;;;;-141.02;100.00;81865.53;5114501;28;20631;-80
2022/08/17 01:46:07;;;;;;;19.40;18.50;;;;;;;-141.02;100.00;81850.00;5114809;28;20712;-78
2022/08/17 01:48:38;;;;;;;18.35;17.45;;;;;;;-141.02;100.00;82255.88;5114662;28;20261;-79
2022/08/17 01:51:07;;;;;;;18.30;17.42;;;;;;;-141.02;100.00;82244.22;5114747;28;20218;-78
2022/08/17 01:53:39;;;;;;;18.48;17.58;;;;;;;-141.02;100.00;81939.31;5114771;28;20629;-79
2022/08/17 01:56:11;;;;;;;18.38;17.48;;;;;;;-141.02;100.00;81851.94;5114085;28;20193;-78
2022/08/17 01:58:40;;;;;;;20.08;19.08;;;;;;;-141.02;100.00;82242.28;5114500;28;20189;-79
2022/08/17 02:01:08;;;;;;;18.48;17.58;;;;;;;-141.02;100.00;82215.06;5114473;28;20200;-79
2022/08/17 02:03:37;;;;;;;18.38;17.48;;;;;;;-141.02;100.00;82228.69;5114666;28;20197;-79
2022/08/17 02:06:06;;;;;;;18.48;17.58;;;;;;;-141.02;100.00;82180.13;5114341;28;20271;-79
2022/08/17 02:08:34;;;;;;;18.70;17.80;;;;;;;-141.02;100.00;82191.78;5114267;28;20610;-79
2022/08/17 02:11:02;;;;;;;18.50;17.60;;;;;;;-141.02;100.00;82215.06;5114240;28;20279;-79
2022/08/17 02:13:32;;;;;;;18.60;17.70;;;;;;;-141.02;100.00;82185.94;5114123;28;20228;-79
2022/08/17 02:16:00;;;;;;;17.48;16.67;;;;;;;-141.02;100.00;82044.19;5114078;28;20197;-79
2022/08/17 02:18:29;;;;;;;17.35;16.55;;;;;;;-141.02;100.00;82218.97;5114151;28;20292;-79
2022/08/17 02:20:57;;;;;;;19.02;18.13;;;;;;;-141.02;100.00;82240.31;5113966;28;20189;-78
2022/08/17 02:23:26;;;;;;;17.10;16.30;;;;;;;-141.02;100.00;82246.16;5114002;28;20567;-79
2022/08/17 02:25:56;;;;;;;17.02;16.23;;;;;;;-141.02;100.00;82267.50;5114289;28;20200;-79
2022/08/17 02:28:24;;;;;;;17.30;16.50;;;;;;;-141.02;100.00;82265.56;5114221;28;20205;-79
2022/08/17 02:30:52;;;;;;;18.15;17.33;;;;;;;-141.02;100.00;82273.34;5113959;28;20197;-80
2022/08/17 02:33:20;;;;;;;17.00;16.20;;;;;;;-141.02;100.00;82323.84;5113728;28;20221;-79
2022/08/17 02:35:48;;;;;;;16.38;15.68;;;;;;;-141.02;100.00;82356.84;5113804;28;20189;-79
2022/08/17 02:38:16;;;;;;;16.27;15.57;;;;;;;-141.02;100.00;82343.25;5113667;28;20258;-79
2022/08/17 02:40:43;;;;;;;16.15;15.45;;;;;;;-141.02;100.00;82393.75;5113972;28;20193;-79
2022/08/17 02:43:12;;;;;;;16.33;15.63;;;;;;;-141.02;100.00;82382.09;5113429;28;20260;-81
2022/08/17 02:45:39;;;;;;;15.88;15.27;;;;;;;-141.02;100.00;82413.19;5113594;28;20193;-79
2022/08/17 02:48:08;;;;;;;15.55;14.95;;;;;;;-141.02;100.00;82434.53;5113511;28;20198;-79
2022/08/17 02:50:36;;;;;;;15.65;15.05;;;;;;;-141.02;100.00;82461.72;5113490;28;20204;-80
2022/08/17 02:53:04;;;;;;;15.73;15.13;;;;;;;-141.02;100.00;82075.25;5114553;28;20553;-78
2022/08/17 02:55:33;;;;;;;15.57;14.98;;;;;;;-141.02;100.00;82490.88;5113363;28;20197;-78
2022/08/17 02:58:02;;;;;;;15.60;15.00;;;;;;;-141.02;100.00;82498.63;5113401;28;20258;-78
2022/08/17 03:00:34;;;;;;;15.43;14.82;;;;;;;-141.02;100.00;82537.47;5113264;28;20195;-79
2022/08/17 03:03:03;;;;;;;15.45;14.85;;;;;;;-141.02;100.00;82523.88;5113318;28;20276;-79
2022/08/17 03:05:33;;;;;;;14.98;14.43;;;;;;;-141.02;100.00;82580.22;5113201;28;20246;-79
2022/08/17 03:08:01;;;;;;;15.32;14.73;;;;;;;-141.02;100.00;82587.97;5113108;28;20688;-78
2022/08/17 03:10:29;;;;;;;15.40;14.80;;;;;;;-141.02;100.00;82587.97;5113120;28;20325;-78
2022/08/17 03:12:58;;;;;;;15.60;15.00;;;;;;;-141.02;100.00;82597.69;5113016;28;20195;-78
2022/08/17 03:15:27;;;;;;;15.88;15.27;;;;;;;-141.02;100.00;82611.28;5112981;28;20260;-79
2022/08/17 03:17:55;;;;;;;15.85;15.25;;;;;;;-141.02;100.00;82582.16;5112906;28;20196;-78
2022/08/17 03:20:24;;;;;;;15.77;15.18;;;;;;;-141.02;100.00;83903.16;5112944;28;20193;-78
2022/08/17 03:22:57;;;;;;;15.70;15.10;;;;;;;-141.02;100.00;82442.31;5112883;28;20235;-79
2022/08/17 03:25:27;;;;;;;15.55;14.95;;;;;;;-141.02;100.00;82578.28;5112898;28;20192;-78
2022/08/17 03:27:55;;;;;;;15.50;14.90;;;;;;;-141.02;100.00;82591.88;5112864;28;20185;-78
2022/08/17 03:30:24;;;;;;;15.70;15.10;;;;;;;-141.02;100.00;82564.69;5113063;28;20223;-78
2022/08/17 03:32:54;;;;;;;15.63;15.02;;;;;;;-141.02;100.00;82619.06;5113039;28;20193;-78
2022/08/17 03:35:35;;;;;;;15.90;15.30;;;;;;;-141.02;100.00;82634.59;5112549;28;20229;-79
2022/08/17 03:38:05;;;;;;;15.43;14.82;;;;;;;-141.02;100.00;82646.25;5112688;28;20276;-79
2022/08/17 03:40:32;;;;;;;15.27;14.68;;;;;;;-141.02;100.00;82615.16;5112626;28;20197;-79
2022/08/17 03:43:05;;;;;;;15.05;14.50;;;;;;;-141.02;100.00;82376.28;5112548;28;20221;-79
2022/08/17 03:56:44;;;;;;;15.70;15.10;;;;;;;-141.02;100.00;82613.22;5113214;28;20193;-78
2022/08/17 03:59:15;;;;;;;15.48;14.88;;;;;;;-141.02;100.00;82638.47;5112448;28;20233;-77
2022/08/17 04:01:43;;;;;;;16.05;15.45;;;;;;;-141.02;100.00;82619.06;5112745;28;20562;-78
2022/08/17 04:04:11;;;;;;;15.68;15.07;;;;;;;-141.02;100.00;82572.44;5112687;28;20222;-79
2022/08/17 04:06:40;;;;;;;15.63;15.02;;;;;;;-141.02;100.00;82545.25;5112609;28;20193;-79
2022/08/17 04:09:10;;;;;;;16.70;16.00;;;;;;;-141.02;100.00;82498.63;5112384;28;20193;-79
2022/08/17 04:11:38;;;;;;;16.90;16.20;;;;;;;-141.02;100.00;82440.38;5112249;28;20226;-80
2022/08/17 04:14:07;;;;;;;17.30;16.60;;;;;;;-141.02;100.00;82413.19;5112172;28;20231;-79
2022/08/17 04:16:35;;;;;;;17.70;16.90;;;;;;;-141.02;100.00;82331.59;5112231;28;20659;-80
2022/08/17 04:19:04;;;;;;;18.20;17.40;;;;;;;-141.02;100.00;82277.22;5114195;28;20738;-79
2022/08/17 04:21:32;;;;;;;18.38;17.58;;;;;;;-141.02;100.00;82232.56;5116511;28;20204;-79
2022/08/17 04:23:59;;;;;;;18.70;17.80;;;;;;;-141.02;100.00;82176.25;5116578;28;20201;-79
2022/08/17 04:26:28;;;;;;;18.70;17.80;;;;;;;-141.02;100.00;82117.97;5116340;28;20201;-80
2022/08/17 04:28:57;;;;;;;18.70;17.80;;;;;;;-141.02;95.52;82071.38;5116256;28;20685;-79
2022/08/17 04:31:25;;;;;;;19.05;18.05;;;;;;;-141.02;94.81;81997.56;5116529;28;20193;-78
2022/08/17 04:33:53;;;;;;;19.25;18.25;;;;;;;-141.02;91.94;82015.06;5116144;28;20204;-78
2022/08/17 04:36:21;;;;;;;19.02;18.02;;;;;;;-141.02;89.92;81945.13;5116077;28;20280;-78
2022/08/17 04:38:49;;;;;;;18.35;17.35;;;;;;;-141.02;88.43;81931.53;5116091;28;20197;-78
2022/08/17 04:44:04;;;;;;;18.95;17.95;;;;;;;-141.02;85.20;81900.47;5116048;28;20305;-79
2022/08/17 04:46:33;;;;;;;19.25;18.15;;;;;;;-141.02;85.15;81873.28;5115894;28;20578;-79
2022/08/17 04:49:04;;;;;;;18.80;17.70;;;;;;;-141.02;83.17;81853.88;5115902;28;20197;-78
2022/08/17 04:51:34;;;;;;;19.83;18.63;;;;;;;-141.02;79.45;81785.91;5116099;28;20245;-80
2022/08/17 04:54:04;;;;;;;19.60;18.50;;;;;;;-141.02;75.71;81706.28;5115733;28;20228;-79
2022/08/17 04:56:33;;;;;;;20.10;18.90;;;;;;;-141.02;75.92;81733.47;5116241;28;20606;-78
2022/08/17 04:59:03;;;;;;;19.98;18.77;;;;;;;-141.02;75.21;81737.34;5115718;28;20208;-78
2022/08/17 05:01:33;;;;;;;19.45;18.35;;;;;;;-141.02;77.74;81721.81;5116039;28;20211;-79
2022/08/17 05:04:04;;;;;;;19.83;18.73;;;;;;;-141.02;78.52;81772.31;5115622;28;20227;-78
2022/08/17 05:06:31;;;;;;;19.77;18.58;;;;;;;-141.02;77.03;81716.00;5115525;28;20728;-79
2022/08/17 05:09:00;;;;;;;19.98;18.88;;;;;;;-141.02;81.04;81816.97;5115509;28;20209;-78
2022/08/17 05:11:29;;;;;;;19.75;18.65;;;;;;;-141.02;79.70;81671.34;5115409;28;20596;-80
2022/08/17 05:13:57;;;;;;;19.63;18.52;;;;;;;-141.02;79.99;81754.84;5115258;28;20197;-79
2022/08/17 05:16:28;;;;;;;19.80;18.70;;;;;;;-141.02;79.79;81816.97;5115702;28;20205;-79
2022/08/17 05:18:57;;;;;;;19.38;18.27;;;;;;;-141.02;79.41;81539.31;5116126;28;20185;-78
2022/08/17 05:21:25;;;;;;;19.23;18.13;;;;;;;-141.02;80.16;81706.28;5115558;28;20208;-78
2022/08/17 05:23:53;;;;;;;18.88;17.88;;;;;;;-141.02;79.79;81739.31;5115487;28;20204;-78
2022/08/17 05:26:22;;;;;;;18.77;17.67;;;;;;;-141.02;80.53;81776.19;5115176;28;20193;-79
2022/08/17 05:28:50;;;;;;;19.10;18.00;;;;;;;-141.02;81.88;81774.25;5115415;28;20211;-78
2022/08/17 05:31:18;;;;;;;19.20;18.13;;;;;;;-141.02;83.40;81453.88;5113770;28;20195;-78
2022/08/17 05:33:48;;;;;;;18.98;17.88;;;;;;;-141.02;84.04;81822.81;5115014;28;20201;-78
2022/08/17 05:36:15;;;;;;;19.05;18.00;;;;;;;-141.02;85.58;81846.09;5115165;28;20237;-78
2022/08/17 05:38:43;;;;;;;19.08;17.98;;;;;;;-141.02;83.33;81772.31;5114922;28;20193;-77
2022/08/17 05:41:10;;;;;;;19.65;18.55;;;;;;;-141.02;83.84;81776.19;5114813;28;20223;-78
2022/08/17 05:43:40;;;;;;;19.45;18.38;;;;;;;-141.02;84.67;81811.16;5114701;28;20233;-78
2022/08/17 05:46:14;;;;;;;19.75;18.65;;;;;;;-141.02;85.03;81838.34;5114776;28;20227;-78
2022/08/17 05:48:44;;;;;;;19.23;18.13;;;;;;;-141.02;83.70;81780.09;5114786;28;20193;-78
2022/08/17 05:51:44;;;;;;;19.00;17.90;;;;;;;-141.02;82.54;81815.03;5114981;28;20193;-79
2022/08/17 05:54:30;;;;;;;18.83;17.73;;;;;;;-141.02;82.54;81733.47;5097753;28;20189;-78
2022/08/17 05:57:28;;;;;;;18.45;17.35;;;;;;;-141.02;81.81;81778.13;5115424;28;20181;-78
2022/08/17 06:00:06;;;;;;;18.75;17.65;;;;;;;-141.02;81.83;81752.91;5114566;28;20192;-77
2022/08/17 06:02:41;;;;;;;18.77;17.70;;;;;;;-141.02;82.83;81774.25;5114480;28;20189;-76
2022/08/17 06:05:22;;;;;;;19.00;17.90;;;;;;;-141.02;83.51;81776.19;5114449;28;20242;-77
2022/08/17 06:07:53;;;;;;;18.70;17.70;;;;;;;-141.02;84.52;81822.81;5114378;28;20192;-76
2022/08/17 06:10:33;;;;;;;18.95;17.95;;;;;;;-141.02;86.14;81807.25;5114435;28;20196;-78
2022/08/17 06:13:09;;;;;;;18.45;17.45;;;;;;;-141.02;85.83;81820.84;5114297;28;20196;-78
2022/08/17 06:15:52;;;;;;;18.45;17.45;;;;;;;-141.02;83.88;81809.22;5114133;28;20209;-79
2022/08/17 06:18:22;;;;;;;19.05;17.98;;;;;;;-141.02;81.48;81750.94;5114238;28;20228;-77
2022/08/17 06:20:53;;;;;;;19.15;18.05;;;;;;;-141.02;81.44;81764.53;5114049;28;20197;-78
2022/08/17 06:23:26;;;;;;;19.52;18.42;;;;;;;-141.02;80.28;81737.34;5114127;28;20600;-81
2022/08/17 06:26:02;;;;;;;19.30;18.20;;;;;;;-141.02;81.25;81768.44;5114012;28;20569;-78
2022/08/17 06:28:37;;;;;;;19.50;18.40;;;;;;;-141.02;81.17;81510.19;5114049;28;20273;-77
2022/08/17 06:31:11;;;;;;;19.80;18.67;;;;;;;-141.02;78.85;81723.78;5114213;28;20261;-78
2022/08/17 06:33:40;;;;;;;20.13;18.92;;;;;;;-141.02;76.11;81570.38;5113919;28;20185;-76
2022/08/17 06:36:23;;;;;;;19.65;18.45;;;;;;;-141.02;77.12;81593.66;5113671;28;20228;-78
2022/08/17 06:38:59;;;;;;;19.90;18.70;;;;;;;-141.02;76.86;81657.75;5113842;28;20276;-77
2022/08/17 06:41:41;;;;;;;20.67;19.48;;;;;;;-141.02;72.86;81640.28;5114230;28;20585;-77
2022/08/17 06:44:17;;;;;;;19.90;18.70;;;;;;;-141.02;72.42;81582.03;5113498;28;20767;-78
2022/08/17 06:46:48;;;;;;;20.48;19.17;;;;;;;-141.02;72.16;81605.31;5113635;28;20200;-77
2022/08/17 06:49:24;;;;;;;20.10;18.90;;;;;;;-141.02;70.10;81527.66;5113557;28;20644;-76
2022/08/17 06:51:56;;;;;;;21.08;19.77;;;;;;;-141.02;68.30;81469.41;5113543;28;20234;-77
2022/08/17 06:54:31;;;;;;;21.10;19.80;;;;;;;-141.02;67.31;81430.56;5113396;28;20186;-76
2022/08/17 06:57:13;;;;;;;20.73;19.42;;;;;;;-141.02;67.92;81502.41;5113782;28;20211;-76
2022/08/17 06:59:47;;;;;;;20.92;19.63;;;;;;;-141.02;67.73;81490.75;5113655;28;20254;-75
2022/08/17 07:02:21;;;;;;;20.65;19.35;;;;;;;-141.02;68.09;81496.59;5113362;28;20185;-76
2022/08/17 07:04:49;;;;;;;20.77;19.48;;;;;;;-141.02;66.99;81345.13;5113603;28;20258;-77
2022/08/17 07:10:08;;;;;;;21.30;19.90;;;;;;;-141.02;64.81;81418.91;5113308;28;20713;-76
2022/08/17 07:12:41;;;;;;;20.70;19.40;;;;;;;-141.02;66.67;81451.94;5113085;28;20197;-77
2022/08/17 07:15:12;;;;;;;20.38;19.08;;;;;;;-141.02;66.48;81446.09;5113103;28;20300;-77
2022/08/17 07:17:41;;;;;;;20.27;18.88;;;;;;;-141.02;66.65;81457.75;5113053;28;20186;-76
2022/08/17 07:20:11;;;;;;;20.45;19.15;;;;;;;-141.02;65.98;81467.47;5113004;28;20193;-75
2022/08/17 07:22:47;;;;;;;20.80;19.40;;;;;;;-141.02;64.94;81405.31;5113048;28;20221;-75
2022/08/17 07:25:17;;;;;;;20.73;19.33;;;;;;;-141.02;66.50;81426.69;5112999;28;20196;-76
2022/08/17 07:27:50;;;;;;;20.58;19.17;;;;;;;-141.02;65.44;81259.69;5112970;28;20189;-76
2022/08/17 07:30:21;;;;;;;20.30;18.90;;;;;;;-141.02;63.02;81362.59;5113178;28;20195;-76
2022/08/17 07:32:52;;;;;;;21.30;19.77;;;;;;;-141.02;63.00;82075.25;5113154;28;20604;-75
2022/08/17 07:35:22;;;;;;;20.13;18.73;;;;;;;-141.02;61.83;81319.91;5112671;28;20216;-77
2022/08/17 07:37:54;;;;;;;19.63;18.27;;;;;;;-141.02;61.23;81248.06;5112765;28;20197;-76
2022/08/17 07:40:29;;;;;;;20.35;18.95;;;;;;;-141.02;60.51;81205.34;5113067;28;20189;-77
2022/08/17 07:43:09;;;;;;;20.30;18.90;;;;;;;-141.02;60.25;80875.31;5112503;28;20232;-76
2022/08/17 07:48:37;;;;;;;20.15;18.85;;;;;;;-141.02;60.05;81224.75;5113104;28;20704;-75
2022/08/17 07:51:16;;;;;;;20.30;18.90;;;;;;;-141.02;60.57;81232.53;5112684;28;20215;-75
2022/08/17 07:53:44;;;;;;;19.92;18.63;;;;;;;-141.02;60.65;81228.63;5112733;28;20189;-76
2022/08/17 07:56:31;;;;;;;20.50;19.10;;;;;;;-141.02;60.97;81267.47;5112575;28;20224;-75
2022/08/17 07:59:09;;;;;;;20.60;19.20;;;;;;;-141.02;60.02;81057.78;5112538;28;20188;-77
2022/08/17 08:01:37;;;;;;;20.25;18.85;;;;;;;-141.02;59.79;81226.69;5112502;28;20226;-76
2022/08/17 08:04:21;;;;;;;19.85;18.55;;;;;;;-141.02;60.24;81238.34;5112849;28;20204;-77
2022/08/17 08:06:53;;;;;;;19.92;18.52;;;;;;;-141.02;59.03;81185.94;5113302;28;20184;-76
2022/08/17 08:09:41;;;;;;;21.88;20.17;;;;;;;-141.02;58.11;81141.28;5112414;28;20231;-75
2022/08/17 08:12:39;;;;;;;19.70;18.30;;;;;;;-141.02;58.99;81117.97;5112411;28;20208;-76
2022/08/17 08:15:17;;;;;;;19.85;18.45;;;;;;;-141.02;59.00;81158.75;5029789;28;20257;-77
2022/08/17 08:17:52;;;;;;;20.13;18.73;;;;;;;-141.02;57.87;81108.28;5099697;28;20250;-75
2022/08/17 08:20:26;;;;;;;20.17;18.77;;;;;;;-141.02;56.28;80749.13;5112649;28;20268;-77
2022/08/17 08:23:06;;;;;;;21.00;19.50;;;;;;;-141.02;55.99;81069.44;5112224;28;20600;-75
2022/08/17 08:25:45;;;;;;;19.65;18.25;;;;;;;-141.02;55.23;81018.97;5112565;28;20187;-76
2022/08/17 08:28:26;;;;;;;20.25;18.75;;;;;;;-141.02;54.44;80815.13;5112198;28;20184;-76
2022/08/17 08:31:23;;;;;;;20.20;18.80;;;;;;;-141.02;53.93;80883.06;5112242;28;20258;-82
2022/08/17 08:34:02;;;;;;;20.25;18.85;;;;;;;-141.02;53.99;80939.38;5112075;28;20206;-79
2022/08/17 08:36:43;;;;;;;20.17;18.77;;;;;;;-141.02;54.33;80811.22;5112051;28;20248;-76
2022/08/17 08:39:18;;;;;;;20.40;19.00;;;;;;;-141.02;53.25;80890.84;5112068;28;20276;-76
2022/08/17 08:41:55;;;;;;;20.10;18.67;;;;;;;-141.02;52.06;80789.88;5112087;28;20197;-75
2022/08/17 08:44:35;;;;;;;20.48;18.98;;;;;;;-141.02;50.80;80704.47;5111940;28;20185;-77
2022/08/17 08:47:13;;;;;;;20.52;19.02;;;;;;;-141.02;50.57;80688.94;5112409;28;20193;-76
2022/08/17 08:50:00;;;;;;;20.92;19.42;;;;;;;-141.02;51.08;80720.00;5112386;28;20231;-75
2022/08/17 08:52:45;;;;;;;21.00;19.50;;;;;;;-141.02;50.30;80642.34;5111961;28;20185;-77
2022/08/17 08:55:18;;;;;;;20.80;19.30;;;;;;;-141.02;51.36;80735.53;5112036;28;20219;-76
2022/08/17 08:57:52;;;;;;;20.50;19.00;;;;;;;-141.02;50.70;80688.94;5111945;28;20198;-75
2022/08/17 09:00:22;;;;;;;21.13;19.58;;;;;;;-141.02;50.64;80727.75;5111935;28;20192;-78
2022/08/17 09:03:31;;;;;;;20.95;19.45;;;;;;;-141.02;49.53;80669.53;5111887;28;20193;-79
2022/08/17 09:17:57;;;;;;;21.42;19.83;;;;;;;-141.02;50.02;80681.19;5172457;27;20945;-75
2022/08/17 09:20:29;;;;;;;22.00;20.00;;;;;;;-141.02;49.73;80650.13;5172124;27;20636;-77
2022/08/17 09:23:02;;;;;;;20.88;19.30;;;;;;;-141.02;50.42;80696.69;5172084;27;20202;-76
2022/08/17 09:25:34;;;;;;;21.25;19.65;;;;;;;-141.02;50.21;80696.69;5171976;27;20282;-76
2022/08/17 09:28:05;;;;;;;21.15;19.55;;;;;;;-141.02;49.08;80626.81;5171707;27;20187;-77
2022/08/17 09:30:39;;;;;;;20.90;19.35;;;;;;;-141.02;49.80;80685.06;5171929;27;20211;-73
2022/08/17 09:33:11;;;;;;;21.65;20.05;;;;;;;-141.02;48.63;80591.88;5171582;27;20183;-77
2022/08/17 09:35:43;;;;;;;21.25;19.65;;;;;;;-141.02;48.51;80622.94;5172372;27;20248;-75
2022/08/17 09:38:22;;;;;;;20.77;19.27;;;;;;;-141.02;48.11;80533.66;5171443;27;20274;-75
2022/08/17 09:40:54;;;;;;;20.80;19.25;;;;;;;-141.02;47.87;80506.47;5171699;27;20179;-77
2022/08/17 09:43:30;;;;;;;21.25;19.65;;;;;;;-141.02;46.55;80506.47;5171662;27;20188;-77
2022/08/17 09:46:01;;;;;;;21.42;19.83;;;;;;;-141.02;47.86;80556.94;5171521;27;20302;-73
2022/08/17 09:48:37;;;;;;;21.38;19.83;;;;;;;-141.02;47.05;80448.22;5171269;27;20188;-75
2022/08/17 09:51:10;;;;;;;20.80;19.30;;;;;;;-141.02;47.96;80630.69;5171324;27;20568;-75
2022/08/17 09:53:39;;;;;;;20.80;19.30;;;;;;;-141.02;49.29;80642.34;5171548;27;20192;-74
2022/08/17 09:56:18;;;;;;;21.40;19.80;;;;;;;-141.02;47.83;80533.66;5171352;27;20725;-77
2022/08/17 09:59:00;;;;;;;21.45;19.80;;;;;;;-141.02;47.68;80490.94;5171349;27;20234;-77
2022/08/17 10:01:35;;;;;;;20.48;18.98;;;;;;;-141.02;47.71;80417.19;5171036;27;20187;-76
2022/08/17 10:04:32;;;;;;;20.88;19.27;;;;;;;-141.02;48.03;80553.06;5171237;27;20194;-76
2022/08/17 10:07:06;;;;;;;20.52;19.02;;;;;;;-141.02;47.50;80494.81;5170836;27;20661;-75
2022/08/17 10:09:46;;;;;;;20.88;19.38;;;;;;;-141.02;46.27;80368.66;5171177;27;20243;-77
2022/08/17 10:12:25;;;;;;;21.20;19.50;;;;;;;-141.02;46.53;80368.66;5171137;27;20193;-76
2022/08/17 10:15:04;;;;;;;21.08;19.48;;;;;;;-141.02;46.36;80409.41;5171097;27;20187;-76
2022/08/17 10:17:42;;;;;;;21.00;19.50;;;;;;;-141.02;47.13;80510.34;5163604;27;20242;-77
2022/08/17 10:20:16;;;;;;;21.48;19.98;;;;;;;-141.02;47.70;80553.06;5156753;27;20184;-78
2022/08/17 10:28:40;;;;;;;20.63;19.20;;;;;;;-141.02;51.65;80822.88;5113246;28;20280;-79
2022/08/17 10:31:11;;;;;;;20.50;19.00;;;;;;;-141.02;51.92;80873.34;5147682;27;20661;-77
2022/08/17 10:33:51;;;;;;;20.70;19.20;;;;;;;-141.02;53.51;80919.94;5156751;27;20733;-78
2022/08/17 10:36:26;;;;;;;20.20;18.75;;;;;;;-141.02;54.41;80982.06;5156616;27;20195;-79
2022/08/17 10:39:07;;;;;;;20.52;19.13;;;;;;;-141.02;55.66;81022.84;5156370;27;20243;-76
2022/08/17 10:41:42;;;;;;;20.88;19.38;;;;;;;-141.02;55.64;81057.78;5156731;27;20606;-77
2022/08/17 10:44:20;;;;;;;20.70;19.20;;;;;;;-141.02;55.56;81036.44;5156596;27;20189;-77
2022/08/17 10:47:00;;;;;;;20.35;18.85;;;;;;;-141.02;55.21;81053.91;5156167;27;20817;-78
2022/08/17 10:49:33;;;;;;;20.25;18.75;;;;;;;-141.02;54.85;80987.91;5156250;27;20633;-78
2022/08/17 10:52:04;;;;;;;20.25;18.85;;;;;;;-141.02;54.56;80952.94;5156104;27;20180;-77
2022/08/17 10:54:48;;;;;;;20.33;18.92;;;;;;;-141.02;54.67;80993.72;5156404;27;20188;-77
2022/08/17 10:57:36;;;;;;;20.55;19.05;;;;;;;-141.02;53.58;80929.66;5156403;27;20271;-77
2022/08/17 11:00:08;;;;;;;21.60;20.10;;;;;;;-141.02;54.36;80958.78;5156023;27;20282;-77
2022/08/17 11:02:47;;;;;;;20.63;19.13;;;;;;;-141.02;54.42;80665.63;5156050;27;20190;-79
2022/08/17 11:05:52;;;;;;;21.10;19.60;;;;;;;-141.02;54.88;81022.84;5155884;27;20187;-77
2022/08/17 11:08:56;;;;;;;21.05;19.55;;;;;;;-141.02;58.96;81182.03;5146304;27;20191;-76
2022/08/17 11:12:05;;;;;;;20.30;18.90;;;;;;;-141.02;62.41;81294.66;5156035;27;20196;-78
2022/08/17 11:14:52;;;;;;;20.05;18.75;;;;;;;-141.02;63.96;81298.53;5147958;27;20192;-79
2022/08/17 11:17:36;;;;;;;20.20;18.80;;;;;;;-141.02;64.97;81352.91;5155515;27;20358;-78
2022/08/17 11:20:47;;;;;;;19.50;18.20;;;;;;;-141.02;65.12;81339.31;5155940;27;20236;-74
2022/08/17 11:24:08;;;;;;;20.27;18.88;;;;;;;-141.02;64.31;81317.94;5118375;27;20222;-76
2022/08/17 11:26:41;;;;;;;21.00;19.50;;;;;;;-141.02;66.80;81356.78;5071296;28;20218;-76
2022/08/17 11:29:19;;;;;;;19.90;18.50;;;;;;;-141.02;73.23;81436.38;5137920;27;20188;-78
2022/08/17 11:31:59;;;;;;;18.85;17.55;;;;;;;-141.02;86.50;81593.66;5155370;27;20184;-77
2022/08/17 11:34:28;;;;;;;17.83;16.73;;;;;;;-141.02;100.00;81772.31;5155724;27;20183;-76
2022/08/17 11:37:33;;;;;;;24.27;22.58;;;;;;;-141.02;100.00;81871.34;5155224;27;20196;-77
2022/08/17 11:40:32;;;;;;;28.00;25.90;;;;;;;-141.02;100.00;82020.88;5155122;27;20192;-75
2022/08/17 11:43:31;;;;;;;28.58;26.38;;;;;;;-141.02;100.00;82067.47;5156069;27;20223;-75
2022/08/17 11:46:14;;;;;;;25.60;23.70;;;;;;;-141.02;100.00;82116.03;5143037;27;20231;-79
2022/08/17 11:52:11;;;;;;;25.55;23.65;;;;;;;-141.02;100.00;82267.50;5155723;27;20692;-73
2022/08/17 11:54:43;;;;;;;23.88;22.08;;;;;;;-141.02;100.00;82211.19;5155058;27;20215;-75
2022/08/17 11:57:47;;;;;;;26.02;24.02;;;;;;;-141.02;100.00;82137.41;5155354;27;20215;-76
2022/08/17 12:00:59;;;;;;;26.98;25.17;;;;;;;-141.02;100.00;81991.75;5154817;27;20191;-74
2022/08/17 12:03:43;;;;;;;23.20;21.90;;;;;;;-141.02;100.00;81807.25;5118794;27;20248;-76
2022/08/17 12:06:26;;;;;;;21.92;20.52;;;;;;;-141.02;100.00;81686.88;5153269;27;20219;-78
2022/08/17 12:08:58;;;;;;;20.45;19.25;;;;;;;-141.02;100.00;81690.75;5154677;27;20188;-75
2022/08/17 12:11:33;;;;;;;20.13;18.92;;;;;;;-141.02;96.63;81442.22;5154906;27;20184;-74